Essen, Belgium

9:30 AM CET on November 12, 2019 (GMT +0100)
Nispen | | Change Station

Elev 26 ft 51.49 °N, 4.45 °E | Updated 12 seconds ago

Overcast
Overcast
40.5 °F
Feels Like 36 °F
N
6.5
Wind Variable Wind from South
Gusts 8.1 mph

Today
High -- | Low -- °F
--% Chance of Precip.
Yesterday
High -- | Low -- °F
Precip. -- in
Pressure 29.56 in
Visibility 6.2 miles
Clouds Scattered Clouds 1500 ft
Mostly Cloudy 8000 ft
Windchill 36 °F
Dew Point 37 °F
Humidity 87%
Rainfall 0.01 in
Snow Depth Not available.
7:54 AM 4:57 PM
Full, 100% visible
METAR EBBL 120755Z 21011KT 9999 SCT015 BKN080 05/03 Q1001 WHT WHT
Pressure 29.56 in
Visibility 6.2 miles
Clouds Scattered Clouds 1500 ft
Mostly Cloudy 8000 ft
Windchill 36 °F
Dew Point 37 °F
Humidity 87%
Rainfall 0.01 in
Snow Depth Not available.
7:54 AM 4:57 PM
Full, 100% visible
METAR EBBL 120755Z 21011KT 9999 SCT015 BKN080 05/03 Q1001 WHT WHT

Get Severe Weather Alerts

Thanks for signing up!

Be on the lookout for a verification email in your inbox.

You'll start receiving the daily forecast at 6 AM.

×

10-Day Weather Forecast

×

Almanac

Astronomy

Nov. 12, 2019 Rise Set
Actual Time
Civil Twilight
Nautical Twilight
Astronomical Twilight
Moon
Length of Visible Light
Length of Day
Tomorrow will be .
, % of the Moon is Illuminated

Today's Extremes

Country Highs Country Lows

Community

WunderPhotos

Category 6

Welcome to Category 6. This is the collective home for Weather Underground's featured writeups by Dr. Jeff Masters (right), Bob Henson (left), Chris Burt, and other regular contributors.

Nearby

Air Quality

  Air Quality AQ Index Pollutant
Not available.

Snow Depth

Station Depth Elevation

Earthquake Activity

City Distance Mag. Time & Date
Minimum magnitude displayed is 2.5.

Coastal Water Temperatures

Place Temperature

Stations

Nearby Weather Stations

Station Location Temp. Windchill Dew Point Humidity Wind Precip. Elev Updated Type